sensor_id;sensor_type;location;lat;lon;timestamp;pressure;altitude;pressure_sealevel;temperature;humidity
2405;BME280;1213;43.206;27.922;2022-11-28T00:00:30;102321.44;;;6.25;100.00
2405;BME280;1213;43.206;27.922;2022-11-28T00:02:56;102320.63;;;6.23;100.00
2405;BME280;1213;43.206;27.922;2022-11-28T00:05:21;102321.38;;;6.27;100.00
2405;BME280;1213;43.206;27.922;2022-11-28T00:07:47;102309.78;;;6.40;100.00
2405;BME280;1213;43.206;27.922;2022-11-28T00:10:12;102310.75;;;6.36;100.00
2405;BME280;1213;43.206;27.922;2022-11-28T00:12:38;102318.91;;;6.22;100.00
2405;BME280;1213;43.206;27.922;2022-11-28T00:15:04;102312.03;;;6.18;100.00
2405;BME280;1213;43.206;27.922;2022-11-28T00:17:30;102308.00;;;6.05;100.00
2405;BME280;1213;43.206;27.922;2022-11-28T00:19:55;102316.47;;;6.15;100.00
2405;BME280;1213;43.206;27.922;2022-11-28T00:22:21;102316.13;;;6.30;100.00
2405;BME280;1213;43.206;27.922;2022-11-28T00:24:46;102318.09;;;6.20;100.00
2405;BME280;1213;43.206;27.922;2022-11-28T00:27:12;102312.88;;;6.20;100.00
2405;BME280;1213;43.206;27.922;2022-11-28T00:29:38;102302.13;;;6.32;100.00
2405;BME280;1213;43.206;27.922;2022-11-28T00:32:04;102302.44;;;6.20;100.00
2405;BME280;1213;43.206;27.922;2022-11-28T00:34:30;102301.59;;;6.18;100.00
2405;BME280;1213;43.206;27.922;2022-11-28T00:36:55;102295.28;;;6.27;100.00
2405;BME280;1213;43.206;27.922;2022-11-28T00:39:21;102304.88;;;6.26;100.00
2405;BME280;1213;43.206;27.922;2022-11-28T00:41:46;102302.13;;;6.32;100.00
2405;BME280;1213;43.206;27.922;2022-11-28T00:44:12;102295.44;;;6.22;100.00
2405;BME280;1213;43.206;27.922;2022-11-28T00:46:38;102290.06;;;6.28;100.00
2405;BME280;1213;43.206;27.922;2022-11-28T00:49:03;102291.44;;;6.43;100.00
2405;BME280;1213;43.206;27.922;2022-11-28T00:51:30;102288.91;;;6.40;100.00
2405;BME280;1213;43.206;27.922;2022-11-28T00:53:58;102289.97;;;6.31;100.00
2405;BME280;1213;43.206;27.922;2022-11-28T00:56:27;102275.97;;;6.35;100.00
2405;BME280;1213;43.206;27.922;2022-11-28T00:58:53;102288.94;;;6.38;100.00
2405;BME280;1213;43.206;27.922;2022-11-28T01:01:26;102282.88;;;6.38;100.00
2405;BME280;1213;43.206;27.922;2022-11-28T01:03:53;102282.06;;;6.34;100.00
2405;BME280;1213;43.206;27.922;2022-11-28T01:06:26;102268.16;;;6.35;100.00
2405;BME280;1213;43.206;27.922;2022-11-28T01:08:52;102263.69;;;6.39;100.00
2405;BME280;1213;43.206;27.922;2022-11-28T01:11:19;102261.97;;;6.38;100.00
2405;BME280;1213;43.206;27.922;2022-11-28T01:13:44;102255.00;;;6.38;100.00
2405;BME280;1213;43.206;27.922;2022-11-28T01:16:10;102251.50;;;6.39;100.00
2405;BME280;1213;43.206;27.922;2022-11-28T01:18:36;102254.03;;;6.43;100.00
2405;BME280;1213;43.206;27.922;2022-11-28T01:21:02;102241.13;;;6.36;100.00
2405;BME280;1213;43.206;27.922;2022-11-28T01:23:28;102251.63;;;6.35;100.00
2405;BME280;1213;43.206;27.922;2022-11-28T01:25:53;102240.19;;;6.39;100.00
2405;BME280;1213;43.206;27.922;2022-11-28T01:28:19;102241.09;;;6.38;100.00
2405;BME280;1213;43.206;27.922;2022-11-28T01:30:44;102240.09;;;6.42;100.00
2405;BME280;1213;43.206;27.922;2022-11-28T01:33:10;102233.13;;;6.44;100.00
2405;BME280;1213;43.206;27.922;2022-11-28T01:35:35;102221.81;;;6.44;100.00
2405;BME280;1213;43.206;27.922;2022-11-28T01:38:00;102223.47;;;6.46;100.00
2405;BME280;1213;43.206;27.922;2022-11-28T01:40:26;102213.13;;;6.43;100.00
2405;BME280;1213;43.206;27.922;2022-11-28T01:42:51;102216.50;;;6.47;100.00
2405;BME280;1213;43.206;27.922;2022-11-28T01:45:27;102208.00;;;6.38;100.00
2405;BME280;1213;43.206;27.922;2022-11-28T01:47:55;102207.91;;;6.43;100.00
2405;BME280;1213;43.206;27.922;2022-11-28T01:50:22;102204.34;;;6.46;100.00
2405;BME280;1213;43.206;27.922;2022-11-28T01:52:52;102200.69;;;6.53;100.00
2405;BME280;1213;43.206;27.922;2022-11-28T01:55:23;102190.31;;;6.50;100.00
2405;BME280;1213;43.206;27.922;2022-11-28T01:57:49;102179.81;;;6.53;100.00
2405;BME280;1213;43.206;27.922;2022-11-28T02:00:19;102186.94;;;6.46;100.00
2405;BME280;1213;43.206;27.922;2022-11-28T02:02:47;102183.56;;;6.41;100.00
2405;BME280;1213;43.206;27.922;2022-11-28T02:05:16;102180.94;;;6.43;100.00
2405;BME280;1213;43.206;27.922;2022-11-28T02:07:43;102175.75;;;6.41;100.00
2405;BME280;1213;43.206;27.922;2022-11-28T02:10:11;102174.91;;;6.40;100.00
2405;BME280;1213;43.206;27.922;2022-11-28T02:18:10;102182.00;;;6.35;100.00
2405;BME280;1213;43.206;27.922;2022-11-28T02:26:52;102183.72;;;6.36;100.00
2405;BME280;1213;43.206;27.922;2022-11-28T02:35:03;102180.22;;;6.37;100.00
2405;BME280;1213;43.206;27.922;2022-11-28T02:37:55;102181.97;;;6.37;100.00
2405;BME280;1213;43.206;27.922;2022-11-28T02:40:42;102177.69;;;6.33;100.00
2405;BME280;1213;43.206;27.922;2022-11-28T02:43:35;102169.88;;;6.33;100.00
2405;BME280;1213;43.206;27.922;2022-11-28T02:46:19;102164.59;;;6.34;100.00
2405;BME280;1213;43.206;27.922;2022-11-28T02:48:57;102180.34;;;6.31;100.00
2405;BME280;1213;43.206;27.922;2022-11-28T02:51:50;102175.22;;;6.28;100.00
2405;BME280;1213;43.206;27.922;2022-11-28T02:54:15;102183.88;;;6.30;100.00
2405;BME280;1213;43.206;27.922;2022-11-28T02:56:52;102173.44;;;6.30;100.00
2405;BME280;1213;43.206;27.922;2022-11-28T03:01:58;102184.16;;;6.18;100.00
2405;BME280;1213;43.206;27.922;2022-11-28T03:04:46;102189.38;;;6.18;100.00
2405;BME280;1213;43.206;27.922;2022-11-28T03:07:34;102180.94;;;6.08;100.00
2405;BME280;1213;43.206;27.922;2022-11-28T03:10:32;102174.06;;;6.04;100.00
2405;BME280;1213;43.206;27.922;2022-11-28T03:24:56;102170.09;;;5.88;100.00
2405;BME280;1213;43.206;27.922;2022-11-28T03:27:33;102173.56;;;5.89;100.00
2405;BME280;1213;43.206;27.922;2022-11-28T03:30:09;102171.81;;;5.89;100.00
2405;BME280;1213;43.206;27.922;2022-11-28T03:32:37;102178.00;;;5.85;100.00
2405;BME280;1213;43.206;27.922;2022-11-28T03:35:06;102178.81;;;5.87;100.00
2405;BME280;1213;43.206;27.922;2022-11-28T03:37:41;102170.88;;;5.93;100.00
2405;BME280;1213;43.206;27.922;2022-11-28T03:40:12;102175.16;;;5.97;100.00
2405;BME280;1213;43.206;27.922;2022-11-28T03:42:48;102176.16;;;5.92;100.00
2405;BME280;1213;43.206;27.922;2022-11-28T03:45:27;102174.47;;;5.88;100.00
2405;BME280;1213;43.206;27.922;2022-11-28T03:48:01;102176.22;;;5.87;100.00
2405;BME280;1213;43.206;27.922;2022-11-28T03:50:49;102170.09;;;5.90;100.00
2405;BME280;1213;43.206;27.922;2022-11-28T03:53:22;102176.16;;;5.92;100.00
2405;BME280;1213;43.206;27.922;2022-11-28T03:56:03;102181.28;;;5.95;100.00
2405;BME280;1213;43.206;27.922;2022-11-28T03:58:53;102189.00;;;5.99;100.00
2405;BME280;1213;43.206;27.922;2022-11-28T04:01:46;102184.78;;;5.94;100.00
2405;BME280;1213;43.206;27.922;2022-11-28T04:09:46;102186.44;;;5.96;100.00
2405;BME280;1213;43.206;27.922;2022-11-28T04:15:05;102176.84;;;5.98;100.00
2405;BME280;1213;43.206;27.922;2022-11-28T04:20:12;102178.66;;;5.95;100.00
2405;BME280;1213;43.206;27.922;2022-11-28T04:22:47;102176.16;;;5.92;100.00
2405;BME280;1213;43.206;27.922;2022-11-28T04:25:15;102167.38;;;5.94;100.00
2405;BME280;1213;43.206;27.922;2022-11-28T04:27:47;102174.38;;;5.92;100.00
2405;BME280;1213;43.206;27.922;2022-11-28T04:30:14;102173.59;;;5.87;100.00
2405;BME280;1213;43.206;27.922;2022-11-28T04:32:46;102169.19;;;5.89;100.00
2405;BME280;1213;43.206;27.922;2022-11-28T04:35:30;102173.41;;;5.96;100.00
2405;BME280;1213;43.206;27.922;2022-11-28T04:37:58;102171.75;;;5.94;100.00
2405;BME280;1213;43.206;27.922;2022-11-28T04:40:25;102169.13;;;5.94;100.00
2405;BME280;1213;43.206;27.922;2022-11-28T04:42:59;102170.94;;;5.89;100.00
2405;BME280;1213;43.206;27.922;2022-11-28T04:45:33;102170.88;;;5.93;100.00
2405;BME280;1213;43.206;27.922;2022-11-28T04:48:00;102164.00;;;5.91;100.00
2405;BME280;1213;43.206;27.922;2022-11-28T04:50:30;102173.53;;;5.92;100.00
2405;BME280;1213;43.206;27.922;2022-11-28T04:53:04;102164.03;;;5.88;100.00
2405;BME280;1213;43.206;27.922;2022-11-28T04:55:44;102162.28;;;5.88;100.00
2405;BME280;1213;43.206;27.922;2022-11-28T05:00:44;102171.00;;;5.87;100.00
2405;BME280;1213;43.206;27.922;2022-11-28T05:03:10;102168.34;;;5.89;100.00
2405;BME280;1213;43.206;27.922;2022-11-28T05:05:47;102167.66;;;5.82;100.00
2405;BME280;1213;43.206;27.922;2022-11-28T05:08:13;102171.94;;;5.84;100.00
2405;BME280;1213;43.206;27.922;2022-11-28T05:10:39;102170.28;;;5.80;100.00
2405;BME280;1213;43.206;27.922;2022-11-28T05:13:04;102171.25;;;5.76;100.00
2405;BME280;1213;43.206;27.922;2022-11-28T05:15:30;102167.84;;;5.74;100.00
2405;BME280;1213;43.206;27.922;2022-11-28T05:17:56;102169.59;;;5.72;100.00
2405;BME280;1213;43.206;27.922;2022-11-28T05:20:21;102170.53;;;5.70;100.00
2405;BME280;1213;43.206;27.922;2022-11-28T05:22:47;102167.13;;;5.68;100.00
2405;BME280;1213;43.206;27.922;2022-11-28T05:25:12;102170.78;;;5.59;100.00
2405;BME280;1213;43.206;27.922;2022-11-28T05:27:37;102170.75;;;5.61;100.00
2405;BME280;1213;43.206;27.922;2022-11-28T05:30:04;102163.66;;;5.67;100.00
2405;BME280;1213;43.206;27.922;2022-11-28T05:32:31;102168.94;;;5.64;100.00
2405;BME280;1213;43.206;27.922;2022-11-28T05:34:57;102160.25;;;5.64;100.00
2405;BME280;1213;43.206;27.922;2022-11-28T05:37:23;102167.97;;;5.68;100.00
2405;BME280;1213;43.206;27.922;2022-11-28T05:39:50;102167.22;;;5.63;100.00
2405;BME280;1213;43.206;27.922;2022-11-28T05:42:15;102173.28;;;5.64;100.00
2405;BME280;1213;43.206;27.922;2022-11-28T05:44:41;102170.69;;;5.64;100.00
2405;BME280;1213;43.206;27.922;2022-11-28T05:47:06;102169.78;;;5.65;100.00
2405;BME280;1213;43.206;27.922;2022-11-28T05:49:31;102169.72;;;5.68;100.00
2405;BME280;1213;43.206;27.922;2022-11-28T05:51:57;102173.91;;;5.75;100.00
2405;BME280;1213;43.206;27.922;2022-11-28T05:54:22;102173.09;;;5.71;100.00
2405;BME280;1213;43.206;27.922;2022-11-28T05:56:48;102179.25;;;5.69;100.00
2405;BME280;1213;43.206;27.922;2022-11-28T05:59:13;102187.81;;;5.74;100.00
2405;BME280;1213;43.206;27.922;2022-11-28T06:01:39;102183.63;;;5.68;100.00
2405;BME280;1213;43.206;27.922;2022-11-28T06:04:04;102175.81;;;5.68;100.00
2405;BME280;1213;43.206;27.922;2022-11-28T06:06:32;102185.28;;;5.71;100.00
2405;BME280;1213;43.206;27.922;2022-11-28T06:08:58;102176.47;;;5.76;100.00
2405;BME280;1213;43.206;27.922;2022-11-28T06:11:25;102179.91;;;5.78;100.00
2405;BME280;1213;43.206;27.922;2022-11-28T06:13:51;102181.38;;;5.90;100.00
2405;BME280;1213;43.206;27.922;2022-11-28T06:16:22;102182.25;;;5.91;100.00
2405;BME280;1213;43.206;27.922;2022-11-28T06:18:55;102177.00;;;5.92;100.00
2405;BME280;1213;43.206;27.922;2022-11-28T06:21:21;102177.00;;;5.92;100.00
2405;BME280;1213;43.206;27.922;2022-11-28T06:23:47;102180.38;;;5.96;100.00
2405;BME280;1213;43.206;27.922;2022-11-28T06:26:14;102174.06;;;6.04;100.00
2405;BME280;1213;43.206;27.922;2022-11-28T06:28:40;102169.69;;;6.06;100.00
2405;BME280;1213;43.206;27.922;2022-11-28T06:31:15;102178.38;;;6.07;100.00
2405;BME280;1213;43.206;27.922;2022-11-28T06:33:41;102185.44;;;6.02;100.00
2405;BME280;1213;43.206;27.922;2022-11-28T06:36:07;102168.75;;;6.09;100.00
2405;BME280;1213;43.206;27.922;2022-11-28T06:38:34;102170.41;;;6.11;100.00
2405;BME280;1213;43.206;27.922;2022-11-28T06:41:01;102169.56;;;6.13;100.00
2405;BME280;1213;43.206;27.922;2022-11-28T06:43:27;102181.69;;;6.14;100.00
2405;BME280;1213;43.206;27.922;2022-11-28T06:45:53;102173.00;;;6.13;100.00
2405;BME280;1213;43.206;27.922;2022-11-28T06:48:19;102164.31;;;6.13;100.00
2405;BME280;1213;43.206;27.922;2022-11-28T06:50:44;102168.72;;;6.10;100.00
2405;BME280;1213;43.206;27.922;2022-11-28T06:53:10;102167.78;;;6.13;100.00
2405;BME280;1213;43.206;27.922;2022-11-28T06:55:35;102162.69;;;6.08;100.00
2405;BME280;1213;43.206;27.922;2022-11-28T06:58:01;102161.44;;;6.23;100.00
2405;BME280;1213;43.206;27.922;2022-11-28T07:00:26;102157.81;;;6.29;100.00
2405;BME280;1213;43.206;27.922;2022-11-28T07:02:52;102154.88;;;6.41;100.00
2405;BME280;1213;43.206;27.922;2022-11-28T07:05:17;102153.03;;;6.45;100.00
2405;BME280;1213;43.206;27.922;2022-11-28T07:07:43;102157.84;;;6.60;100.00
2405;BME280;1213;43.206;27.922;2022-11-28T07:10:10;102159.56;;;6.61;100.00
2405;BME280;1213;43.206;27.922;2022-11-28T07:12:35;102158.75;;;6.59;100.00
2405;BME280;1213;43.206;27.922;2022-11-28T07:15:01;102159.81;;;6.52;100.00
2405;BME280;1213;43.206;27.922;2022-11-28T07:17:27;102154.34;;;6.61;100.00
2405;BME280;1213;43.206;27.922;2022-11-28T07:19:52;102149.22;;;6.58;100.00
2405;BME280;1213;43.206;27.922;2022-11-28T07:22:18;102150.72;;;6.66;100.00
2405;BME280;1213;43.206;27.922;2022-11-28T07:24:43;102154.03;;;6.72;100.00
2405;BME280;1213;43.206;27.922;2022-11-28T07:27:08;102155.56;;;6.80;100.00
2405;BME280;1213;43.206;27.922;2022-11-28T07:29:34;102153.97;;;6.75;100.00
2405;BME280;1213;43.206;27.922;2022-11-28T07:32:03;102145.09;;;6.80;100.00
2405;BME280;1213;43.206;27.922;2022-11-28T07:34:30;102139.09;;;6.77;100.00
2405;BME280;1213;43.206;27.922;2022-11-28T07:36:55;102145.00;;;6.83;100.00
2405;BME280;1213;43.206;27.922;2022-11-28T07:39:21;102145.06;;;6.82;100.00
2405;BME280;1213;43.206;27.922;2022-11-28T07:41:46;102143.88;;;6.92;100.00
2405;BME280;1213;43.206;27.922;2022-11-28T07:44:11;102147.66;;;6.82;100.00
2405;BME280;1213;43.206;27.922;2022-11-28T07:46:37;102138.03;;;6.84;100.00
2405;BME280;1213;43.206;27.922;2022-11-28T07:49:03;102146.88;;;6.78;100.00
2405;BME280;1213;43.206;27.922;2022-11-28T07:51:31;102135.09;;;6.63;100.00
2405;BME280;1213;43.206;27.922;2022-11-28T07:53:57;102138.56;;;6.64;100.00
2405;BME280;1213;43.206;27.922;2022-11-28T07:56:25;102140.69;;;6.82;100.00
2405;BME280;1213;43.206;27.922;2022-11-28T07:58:51;102140.75;;;6.81;100.00
2405;BME280;1213;43.206;27.922;2022-11-28T08:01:22;102144.44;;;6.72;100.00
2405;BME280;1213;43.206;27.922;2022-11-28T08:03:48;102149.72;;;6.71;100.00
2405;BME280;1213;43.206;27.922;2022-11-28T08:06:15;102141.97;;;6.67;100.00
2405;BME280;1213;43.206;27.922;2022-11-28T08:08:42;102139.31;;;6.69;100.00
2405;BME280;1213;43.206;27.922;2022-11-28T08:11:08;102145.31;;;6.73;100.00
2405;BME280;1213;43.206;27.922;2022-11-28T08:13:36;102149.66;;;6.72;100.00
2405;BME280;1213;43.206;27.922;2022-11-28T08:16:06;102138.25;;;6.76;100.00
2405;BME280;1213;43.206;27.922;2022-11-28T08:18:33;102135.47;;;6.82;100.00
2405;BME280;1213;43.206;27.922;2022-11-28T08:21:22;102133.66;;;6.84;100.00
2405;BME280;1213;43.206;27.922;2022-11-28T08:23:48;102130.13;;;6.85;100.00
2405;BME280;1213;43.206;27.922;2022-11-28T08:26:16;102130.81;;;6.92;100.00
2405;BME280;1213;43.206;27.922;2022-11-28T08:28:43;102118.94;;;6.82;100.00
2405;BME280;1213;43.206;27.922;2022-11-28T08:31:11;102132.34;;;6.99;100.00
2405;BME280;1213;43.206;27.922;2022-11-28T08:33:37;102129.00;;;6.95;100.00
2405;BME280;1213;43.206;27.922;2022-11-28T08:36:05;102129.63;;;7.04;100.00
2405;BME280;1213;43.206;27.922;2022-11-28T08:38:30;102124.34;;;7.05;100.00
2405;BME280;1213;43.206;27.922;2022-11-28T08:41:03;102138.53;;;6.97;100.00
2405;BME280;1213;43.206;27.922;2022-11-28T08:43:30;102134.69;;;6.79;100.00
2405;BME280;1213;43.206;27.922;2022-11-28T08:45:55;102135.22;;;6.60;100.00
2405;BME280;1213;43.206;27.922;2022-11-28T08:48:21;102135.53;;;6.48;100.00
2405;BME280;1213;43.206;27.922;2022-11-28T08:50:47;102138.88;;;6.53;100.00
2405;BME280;1213;43.206;27.922;2022-11-28T08:53:13;102138.66;;;6.61;100.00
2405;BME280;1213;43.206;27.922;2022-11-28T08:55:42;102133.50;;;6.59;100.00
2405;BME280;1213;43.206;27.922;2022-11-28T08:58:10;102111.44;;;6.70;100.00
2405;BME280;1213;43.206;27.922;2022-11-28T09:00:35;102117.34;;;6.76;100.00
2405;BME280;1213;43.206;27.922;2022-11-28T09:03:01;102104.16;;;6.81;100.00
2405;BME280;1213;43.206;27.922;2022-11-28T09:05:28;102098.09;;;6.79;100.00
2405;BME280;1213;43.206;27.922;2022-11-28T09:07:54;102103.44;;;6.76;100.00
2405;BME280;1213;43.206;27.922;2022-11-28T09:10:20;102106.06;;;6.76;100.00
2405;BME280;1213;43.206;27.922;2022-11-28T09:12:46;102103.56;;;6.71;100.00
2405;BME280;1213;43.206;27.922;2022-11-28T09:15:11;102094.38;;;6.87;100.00
2405;BME280;1213;43.206;27.922;2022-11-28T09:17:38;102113.44;;;6.91;100.00
2405;BME280;1213;43.206;27.922;2022-11-28T09:20:05;102105.94;;;6.80;100.00
2405;BME280;1213;43.206;27.922;2022-11-28T09:22:30;102095.28;;;6.86;100.00
2405;BME280;1213;43.206;27.922;2022-11-28T09:24:56;102093.56;;;6.85;100.00
2405;BME280;1213;43.206;27.922;2022-11-28T09:27:21;102078.53;;;6.93;100.00
2405;BME280;1213;43.206;27.922;2022-11-28T09:29:46;102079.16;;;7.02;100.00
2405;BME280;1213;43.206;27.922;2022-11-28T09:32:12;102079.88;;;7.07;100.00
2405;BME280;1213;43.206;27.922;2022-11-28T09:34:37;102071.00;;;7.12;100.00
2405;BME280;1213;43.206;27.922;2022-11-28T09:37:03;102063.16;;;7.39;100.00
2405;BME280;1213;43.206;27.922;2022-11-28T09:39:30;102042.00;;;7.46;100.00
2405;BME280;1213;43.206;27.922;2022-11-28T09:42:11;102046.78;;;7.60;100.00
2405;BME280;1213;43.206;27.922;2022-11-28T09:44:52;102037.94;;;7.38;100.00
2405;BME280;1213;43.206;27.922;2022-11-28T09:47:25;102023.88;;;7.42;100.00
2405;BME280;1213;43.206;27.922;2022-11-28T09:52:41;102039.19;;;7.53;100.00
2405;BME280;1213;43.206;27.922;2022-11-28T09:55:42;102018.47;;;7.73;100.00
2405;BME280;1213;43.206;27.922;2022-11-28T09:58:41;102028.28;;;7.91;100.00
2405;BME280;1213;43.206;27.922;2022-11-28T10:01:43;102031.75;;;8.17;100.00
2405;BME280;1213;43.206;27.922;2022-11-28T10:07:07;102020.75;;;8.07;100.00
2405;BME280;1213;43.206;27.922;2022-11-28T10:12:42;102007.13;;;7.97;100.00
2405;BME280;1213;43.206;27.922;2022-11-28T10:15:17;102018.88;;;8.11;100.00
2405;BME280;1213;43.206;27.922;2022-11-28T10:20:25;102013.28;;;7.96;100.00
2405;BME280;1213;43.206;27.922;2022-11-28T10:23:00;102015.03;;;8.21;100.00
2405;BME280;1213;43.206;27.922;2022-11-28T10:25:36;102017.47;;;8.25;100.00
2405;BME280;1213;43.206;27.922;2022-11-28T10:28:13;102016.94;;;8.16;100.00
2405;BME280;1213;43.206;27.922;2022-11-28T10:30:41;102012.44;;;7.96;100.00
2405;BME280;1213;43.206;27.922;2022-11-28T10:33:20;102023.09;;;7.65;100.00
2405;BME280;1213;43.206;27.922;2022-11-28T10:36:00;102015.19;;;7.66;100.00
2405;BME280;1213;43.206;27.922;2022-11-28T10:38:27;102000.25;;;7.70;100.00
2405;BME280;1213;43.206;27.922;2022-11-28T10:41:10;102003.72;;;7.70;100.00
2405;BME280;1213;43.206;27.922;2022-11-28T10:44:02;101997.25;;;7.56;100.00
2405;BME280;1213;43.206;27.922;2022-11-28T10:46:47;102008.66;;;7.53;100.00
2405;BME280;1213;43.206;27.922;2022-11-28T10:49:39;102007.81;;;7.53;100.00
2405;BME280;1213;43.206;27.922;2022-11-28T10:52:16;101993.44;;;7.39;100.00
2405;BME280;1213;43.206;27.922;2022-11-28T11:00:18;101979.75;;;7.31;100.00
2405;BME280;1213;43.206;27.922;2022-11-28T11:02:55;101983.03;;;7.38;100.00
2405;BME280;1213;43.206;27.922;2022-11-28T11:05:29;101984.16;;;7.56;100.00
2405;BME280;1213;43.206;27.922;2022-11-28T11:07:57;101992.53;;;7.40;100.00
2405;BME280;1213;43.206;27.922;2022-11-28T11:10:49;101986.41;;;7.41;100.00
2405;BME280;1213;43.206;27.922;2022-11-28T11:13:19;101977.09;;;7.33;100.00
2405;BME280;1213;43.206;27.922;2022-11-28T11:15:48;101974.53;;;7.31;100.00
2405;BME280;1213;43.206;27.922;2022-11-28T11:18:26;101989.97;;;7.39;100.00
2405;BME280;1213;43.206;27.922;2022-11-28T11:21:14;101973.75;;;7.29;100.00
2405;BME280;1213;43.206;27.922;2022-11-28T11:23:40;101970.34;;;7.27;100.00
2405;BME280;1213;43.206;27.922;2022-11-28T11:26:06;101968.38;;;7.34;100.00
2405;BME280;1213;43.206;27.922;2022-11-28T11:28:46;101964.09;;;7.05;100.00
2405;BME280;1213;43.206;27.922;2022-11-28T11:31:16;101965.94;;;7.01;100.00
2405;BME280;1213;43.206;27.922;2022-11-28T11:33:43;101985.69;;;7.10;100.00
2405;BME280;1213;43.206;27.922;2022-11-28T11:36:29;101981.28;;;7.12;100.00
2405;BME280;1213;43.206;27.922;2022-11-28T11:41:30;101971.59;;;7.42;100.00
2405;BME280;1213;43.206;27.922;2022-11-28T11:49:42;101961.59;;;7.28;100.00
2405;BME280;1213;43.206;27.922;2022-11-28T11:54:38;101963.75;;;7.15;100.00
2405;BME280;1213;43.206;27.922;2022-11-28T11:57:04;101957.84;;;7.09;100.00
2405;BME280;1213;43.206;27.922;2022-11-28T11:59:41;101959.88;;;7.01;100.00
2405;BME280;1213;43.206;27.922;2022-11-28T12:04:58;101955.34;;;7.06;100.00
2405;BME280;1213;43.206;27.922;2022-11-28T12:07:40;101961.63;;;7.00;100.00
2405;BME280;1213;43.206;27.922;2022-11-28T12:10:11;101958.75;;;7.08;100.00
2405;BME280;1213;43.206;27.922;2022-11-28T12:12:39;101961.13;;;7.15;100.00
2405;BME280;1213;43.206;27.922;2022-11-28T12:26:00;101953.56;;;7.33;100.00
2405;BME280;1213;43.206;27.922;2022-11-28T12:28:59;101952.28;;;7.19;100.00
2405;BME280;1213;43.206;27.922;2022-11-28T12:42:40;101949.00;;;7.39;100.00
2405;BME280;1213;43.206;27.922;2022-11-28T12:45:16;101952.19;;;7.47;100.00
2405;BME280;1213;43.206;27.922;2022-11-28T12:50:38;101939.09;;;7.49;100.00
2405;BME280;1213;43.206;27.922;2022-11-28T12:57:15;101943.47;;;7.48;100.00
2405;BME280;1213;43.206;27.922;2022-11-28T13:10:27;101953.53;;;7.34;100.00
2405;BME280;1213;43.206;27.922;2022-11-28T13:13:05;101952.63;;;7.35;100.00
2405;BME280;1213;43.206;27.922;2022-11-28T13:18:47;101944.03;;;7.32;100.00
2405;BME280;1213;43.206;27.922;2022-11-28T13:26:55;101953.81;;;7.27;100.00
2405;BME280;1213;43.206;27.922;2022-11-28T13:35:04;101954.56;;;7.04;100.00
2405;BME280;1213;43.206;27.922;2022-11-28T13:37:36;101947.41;;;7.09;100.00
2405;BME280;1213;43.206;27.922;2022-11-28T13:45:37;101942.22;;;7.07;100.00
2405;BME280;1213;43.206;27.922;2022-11-28T13:51:13;101940.47;;;7.08;100.00
2405;BME280;1213;43.206;27.922;2022-11-28T13:53:44;101953.78;;;7.00;100.00
2405;BME280;1213;43.206;27.922;2022-11-28T14:01:13;101944.91;;;7.06;100.00
2405;BME280;1213;43.206;27.922;2022-11-28T14:06:24;101950.13;;;7.06;100.00
2405;BME280;1213;43.206;27.922;2022-11-28T14:09:04;101955.41;;;7.04;100.00
2405;BME280;1213;43.206;27.922;2022-11-28T14:22:30;101968.34;;;6.81;100.00
2405;BME280;1213;43.206;27.922;2022-11-28T14:25:16;101954.31;;;6.83;100.00
2405;BME280;1213;43.206;27.922;2022-11-28T14:27:53;101952.50;;;6.85;100.00
2405;BME280;1213;43.206;27.922;2022-11-28T14:30:43;101957.66;;;6.88;100.00
2405;BME280;1213;43.206;27.922;2022-11-28T14:33:39;101954.16;;;6.89;100.00
2405;BME280;1213;43.206;27.922;2022-11-28T14:44:51;101949.47;;;6.71;100.00
2405;BME280;1213;43.206;27.922;2022-11-28T14:47:31;101942.66;;;6.67;100.00
2405;BME280;1213;43.206;27.922;2022-11-28T14:52:31;101944.38;;;6.68;100.00
2405;BME280;1213;43.206;27.922;2022-11-28T14:55:03;101952.09;;;6.71;100.00
2405;BME280;1213;43.206;27.922;2022-11-28T14:57:34;101941.50;;;6.76;100.00
2405;BME280;1213;43.206;27.922;2022-11-28T15:05:27;101922.63;;;6.67;100.00
2405;BME280;1213;43.206;27.922;2022-11-28T15:15:24;101923.75;;;6.59;100.00
2405;BME280;1213;43.206;27.922;2022-11-28T15:17:52;101937.72;;;6.58;100.00
2405;BME280;1213;43.206;27.922;2022-11-28T15:20:31;101924.81;;;6.53;100.00
2405;BME280;1213;43.206;27.922;2022-11-28T15:22:59;101926.56;;;6.53;100.00
2405;BME280;1213;43.206;27.922;2022-11-28T15:25:26;101931.78;;;6.53;100.00
2405;BME280;1213;43.206;27.922;2022-11-28T15:27:53;101933.59;;;6.51;100.00
2405;BME280;1213;43.206;27.922;2022-11-28T15:30:21;101930.03;;;6.53;100.00
2405;BME280;1213;43.206;27.922;2022-11-28T15:33:00;101931.97;;;6.47;100.00
2405;BME280;1213;43.206;27.922;2022-11-28T15:35:26;101921.81;;;6.37;100.00
2405;BME280;1213;43.206;27.922;2022-11-28T15:37:54;101940.75;;;6.44;100.00
2405;BME280;1213;43.206;27.922;2022-11-28T15:42:52;101941.03;;;6.35;100.00
2405;BME280;1213;43.206;27.922;2022-11-28T15:45:24;101936.91;;;6.28;100.00
2405;BME280;1213;43.206;27.922;2022-11-28T15:47:51;101926.56;;;6.23;100.00
2405;BME280;1213;43.206;27.922;2022-11-28T15:50:25;101932.69;;;6.22;100.00
2405;BME280;1213;43.206;27.922;2022-11-28T15:52:56;101931.91;;;6.20;100.00
2405;BME280;1213;43.206;27.922;2022-11-28T15:55:24;101917.03;;;6.22;100.00
2405;BME280;1213;43.206;27.922;2022-11-28T15:57:50;101928.38;;;6.21;100.00
2405;BME280;1213;43.206;27.922;2022-11-28T16:00:18;101910.97;;;6.22;100.00
2405;BME280;1213;43.206;27.922;2022-11-28T16:02:46;101918.13;;;6.15;100.00
2405;BME280;1213;43.206;27.922;2022-11-28T16:05:16;101919.84;;;6.16;100.00
2405;BME280;1213;43.206;27.922;2022-11-28T16:07:45;101928.47;;;6.18;100.00
2405;BME280;1213;43.206;27.922;2022-11-28T16:10:46;101927.72;;;6.15;100.00
2405;BME280;1213;43.206;27.922;2022-11-28T16:13:15;101928.59;;;6.14;100.00
2405;BME280;1213;43.206;27.922;2022-11-28T16:15:47;101934.75;;;6.11;100.00
2405;BME280;1213;43.206;27.922;2022-11-28T16:18:14;101941.69;;;6.12;100.00
2405;BME280;1213;43.206;27.922;2022-11-28T16:20:41;101928.63;;;6.12;100.00